<?xml version="1.0" encoding="UTF-8" standalone="no" ?>
<gpx xmlns="http://www.topografix.com/GPX/1/1" xmlns:xsi="http://www.w3.org/2001/XMLSchema-instance" xsi:schemaLocation="http://www.topografix.com/GPX/1/1 http://www.topografix.com/GPX/1/1/gpx.xsd" version="1.1" creator="VisuGPX - https://www.visugpx.com">
  <metadata>
    <name>riverie gm alain 02-05-2019</name>
    <desc><![CDATA[Rando Ramml Grande Marche Alain 02-05-2019]]></desc>
  </metadata>
  <trk>
    <name><![CDATA[Randonnée du 23/04/2019 à 08:44]]></name>
    <trkseg>
      <trkpt lat="45.60077" lon="4.58819">
        <ele>768</ele>
        <time>2019-04-23T08:44:26+02:00</time>
      </trkpt>
      <trkpt lat="45.60074" lon="4.58852">
        <ele>758</ele>
        <time>2019-04-23T08:45:42+02:00</time>
      </trkpt>
      <trkpt lat="45.60089" lon="4.58878">
        <ele>760</ele>
        <time>2019-04-23T08:46:03+02:00</time>
      </trkpt>
      <trkpt lat="45.60111" lon="4.58887">
        <ele>764</ele>
        <time>2019-04-23T08:46:20+02:00</time>
      </trkpt>
      <trkpt lat="45.6011" lon="4.58921">
        <ele>763</ele>
        <time>2019-04-23T08:46:35+02:00</time>
      </trkpt>
      <trkpt lat="45.6013" lon="4.58935">
        <ele>758</ele>
        <time>2019-04-23T08:46:49+02:00</time>
      </trkpt>
      <trkpt lat="45.60121" lon="4.58967">
        <ele>759</ele>
        <time>2019-04-23T08:47:04+02:00</time>
      </trkpt>
      <trkpt lat="45.60123" lon="4.59001">
        <ele>751</ele>
        <time>2019-04-23T08:47:25+02:00</time>
      </trkpt>
      <trkpt lat="45.6012" lon="4.59034">
        <ele>748</ele>
        <time>2019-04-23T08:47:42+02:00</time>
      </trkpt>
      <trkpt lat="45.6012" lon="4.59066">
        <ele>744</ele>
        <time>2019-04-23T08:47:59+02:00</time>
      </trkpt>
      <trkpt lat="45.60118" lon="4.591">
        <ele>744</ele>
        <time>2019-04-23T08:48:14+02:00</time>
      </trkpt>
      <trkpt lat="45.60112" lon="4.59132">
        <ele>745</ele>
        <time>2019-04-23T08:48:30+02:00</time>
      </trkpt>
      <trkpt lat="45.6011" lon="4.59164">
        <ele>729</ele>
        <time>2019-04-23T08:48:44+02:00</time>
      </trkpt>
      <trkpt lat="45.60101" lon="4.59194">
        <ele>724</ele>
        <time>2019-04-23T08:48:55+02:00</time>
      </trkpt>
      <trkpt lat="45.60097" lon="4.59227">
        <ele>722</ele>
        <time>2019-04-23T08:49:10+02:00</time>
      </trkpt>
      <trkpt lat="45.60091" lon="4.59258">
        <ele>713</ele>
        <time>2019-04-23T08:49:23+02:00</time>
      </trkpt>
      <trkpt lat="45.60088" lon="4.59291">
        <ele>709</ele>
        <time>2019-04-23T08:49:37+02:00</time>
      </trkpt>
      <trkpt lat="45.60085" lon="4.59324">
        <ele>706</ele>
        <time>2019-04-23T08:49:51+02:00</time>
      </trkpt>
      <trkpt lat="45.6008" lon="4.59357">
        <ele>697</ele>
        <time>2019-04-23T08:50:05+02:00</time>
      </trkpt>
      <trkpt lat="45.60079" lon="4.59389">
        <ele>689</ele>
        <time>2019-04-23T08:50:20+02:00</time>
      </trkpt>
      <trkpt lat="45.60083" lon="4.59422">
        <ele>687</ele>
        <time>2019-04-23T08:50:34+02:00</time>
      </trkpt>
      <trkpt lat="45.6008" lon="4.59455">
        <ele>682</ele>
        <time>2019-04-23T08:50:47+02:00</time>
      </trkpt>
      <trkpt lat="45.60076" lon="4.59488">
        <ele>682</ele>
        <time>2019-04-23T08:51:03+02:00</time>
      </trkpt>
      <trkpt lat="45.60075" lon="4.59522">
        <ele>677</ele>
        <time>2019-04-23T08:51:17+02:00</time>
      </trkpt>
      <trkpt lat="45.60069" lon="4.59554">
        <ele>675</ele>
        <time>2019-04-23T08:51:29+02:00</time>
      </trkpt>
      <trkpt lat="45.6007" lon="4.59588">
        <ele>668</ele>
        <time>2019-04-23T08:51:45+02:00</time>
      </trkpt>
      <trkpt lat="45.60069" lon="4.59623">
        <ele>663</ele>
        <time>2019-04-23T08:51:59+02:00</time>
      </trkpt>
      <trkpt lat="45.60059" lon="4.59652">
        <ele>661</ele>
        <time>2019-04-23T08:52:11+02:00</time>
      </trkpt>
      <trkpt lat="45.60058" lon="4.59684">
        <ele>661</ele>
        <time>2019-04-23T08:52:26+02:00</time>
      </trkpt>
      <trkpt lat="45.6006" lon="4.59717">
        <ele>652</ele>
        <time>2019-04-23T08:52:40+02:00</time>
      </trkpt>
      <trkpt lat="45.60069" lon="4.59748">
        <ele>652</ele>
        <time>2019-04-23T08:52:53+02:00</time>
      </trkpt>
      <trkpt lat="45.60081" lon="4.59777">
        <ele>645</ele>
        <time>2019-04-23T08:53:04+02:00</time>
      </trkpt>
      <trkpt lat="45.60092" lon="4.59806">
        <ele>638</ele>
        <time>2019-04-23T08:53:20+02:00</time>
      </trkpt>
      <trkpt lat="45.60076" lon="4.5983">
        <ele>633</ele>
        <time>2019-04-23T08:53:50+02:00</time>
      </trkpt>
      <trkpt lat="45.60084" lon="4.59862">
        <ele>631</ele>
        <time>2019-04-23T08:54:03+02:00</time>
      </trkpt>
      <trkpt lat="45.60083" lon="4.59896">
        <ele>627</ele>
        <time>2019-04-23T08:54:18+02:00</time>
      </trkpt>
      <trkpt lat="45.60072" lon="4.59924">
        <ele>624</ele>
        <time>2019-04-23T08:54:28+02:00</time>
      </trkpt>
      <trkpt lat="45.60062" lon="4.59953">
        <ele>624</ele>
        <time>2019-04-23T08:54:38+02:00</time>
      </trkpt>
      <trkpt lat="45.60053" lon="4.59985">
        <ele>621</ele>
        <time>2019-04-23T08:54:50+02:00</time>
      </trkpt>
      <trkpt lat="45.60042" lon="4.60015">
        <ele>619</ele>
        <time>2019-04-23T08:55:03+02:00</time>
      </trkpt>
      <trkpt lat="45.60035" lon="4.60046">
        <ele>618</ele>
        <time>2019-04-23T08:55:18+02:00</time>
      </trkpt>
      <trkpt lat="45.60038" lon="4.6008">
        <ele>619</ele>
        <time>2019-04-23T08:55:36+02:00</time>
      </trkpt>
      <trkpt lat="45.60046" lon="4.60111">
        <ele>616</ele>
        <time>2019-04-23T08:55:50+02:00</time>
      </trkpt>
      <trkpt lat="45.60051" lon="4.60143">
        <ele>613</ele>
        <time>2019-04-23T08:56:00+02:00</time>
      </trkpt>
      <trkpt lat="45.60049" lon="4.60175">
        <ele>612</ele>
        <time>2019-04-23T08:56:09+02:00</time>
      </trkpt>
      <trkpt lat="45.60045" lon="4.60207">
        <ele>610</ele>
        <time>2019-04-23T08:56:24+02:00</time>
      </trkpt>
      <trkpt lat="45.60053" lon="4.60239">
        <ele>607</ele>
        <time>2019-04-23T08:56:38+02:00</time>
      </trkpt>
      <trkpt lat="45.60061" lon="4.6027">
        <ele>602</ele>
        <time>2019-04-23T08:56:53+02:00</time>
      </trkpt>
      <trkpt lat="45.60069" lon="4.60301">
        <ele>603</ele>
        <time>2019-04-23T08:57:07+02:00</time>
      </trkpt>
      <trkpt lat="45.60078" lon="4.60331">
        <ele>597</ele>
        <time>2019-04-23T08:59:03+02:00</time>
      </trkpt>
      <trkpt lat="45.60077" lon="4.60364">
        <ele>595</ele>
        <time>2019-04-23T08:59:36+02:00</time>
      </trkpt>
      <trkpt lat="45.60073" lon="4.60396">
        <ele>593</ele>
        <time>2019-04-23T08:59:51+02:00</time>
      </trkpt>
      <trkpt lat="45.60096" lon="4.60407">
        <ele>592</ele>
        <time>2019-04-23T09:00:04+02:00</time>
      </trkpt>
      <trkpt lat="45.60121" lon="4.60414">
        <ele>594</ele>
        <time>2019-04-23T09:00:15+02:00</time>
      </trkpt>
      <trkpt lat="45.60144" lon="4.60412">
        <ele>594</ele>
        <time>2019-04-23T09:00:24+02:00</time>
      </trkpt>
      <trkpt lat="45.60165" lon="4.604">
        <ele>588</ele>
        <time>2019-04-23T09:00:36+02:00</time>
      </trkpt>
      <trkpt lat="45.60181" lon="4.60375">
        <ele>596</ele>
        <time>2019-04-23T09:00:49+02:00</time>
      </trkpt>
      <trkpt lat="45.60199" lon="4.60354">
        <ele>593</ele>
        <time>2019-04-23T09:01:04+02:00</time>
      </trkpt>
      <trkpt lat="45.60217" lon="4.6033">
        <ele>594</ele>
        <time>2019-04-23T09:01:19+02:00</time>
      </trkpt>
      <trkpt lat="45.60235" lon="4.60309">
        <ele>597</ele>
        <time>2019-04-23T09:01:33+02:00</time>
      </trkpt>
      <trkpt lat="45.60255" lon="4.60293">
        <ele>591</ele>
        <time>2019-04-23T09:01:46+02:00</time>
      </trkpt>
      <trkpt lat="45.60279" lon="4.60298">
        <ele>588</ele>
        <time>2019-04-23T09:02:02+02:00</time>
      </trkpt>
      <trkpt lat="45.60288" lon="4.6033">
        <ele>585</ele>
        <time>2019-04-23T09:02:18+02:00</time>
      </trkpt>
      <trkpt lat="45.60298" lon="4.60359">
        <ele>588</ele>
        <time>2019-04-23T09:02:33+02:00</time>
      </trkpt>
      <trkpt lat="45.60313" lon="4.60386">
        <ele>585</ele>
        <time>2019-04-23T09:02:47+02:00</time>
      </trkpt>
      <trkpt lat="45.60328" lon="4.60412">
        <ele>589</ele>
        <time>2019-04-23T09:03:02+02:00</time>
      </trkpt>
      <trkpt lat="45.60345" lon="4.60437">
        <ele>590</ele>
        <time>2019-04-23T09:03:18+02:00</time>
      </trkpt>
      <trkpt lat="45.60361" lon="4.60459">
        <ele>590</ele>
        <time>2019-04-23T09:03:34+02:00</time>
      </trkpt>
      <trkpt lat="45.60377" lon="4.60483">
        <ele>594</ele>
        <time>2019-04-23T09:03:50+02:00</time>
      </trkpt>
      <trkpt lat="45.60392" lon="4.60508">
        <ele>594</ele>
        <time>2019-04-23T09:04:05+02:00</time>
      </trkpt>
      <trkpt lat="45.60409" lon="4.6053">
        <ele>592</ele>
        <time>2019-04-23T09:04:20+02:00</time>
      </trkpt>
      <trkpt lat="45.60425" lon="4.60553">
        <ele>596</ele>
        <time>2019-04-23T09:04:36+02:00</time>
      </trkpt>
      <trkpt lat="45.60443" lon="4.60576">
        <ele>595</ele>
        <time>2019-04-23T09:04:52+02:00</time>
      </trkpt>
      <trkpt lat="45.6046" lon="4.60598">
        <ele>597</ele>
        <time>2019-04-23T09:05:07+02:00</time>
      </trkpt>
      <trkpt lat="45.60475" lon="4.60622">
        <ele>599</ele>
        <time>2019-04-23T09:05:22+02:00</time>
      </trkpt>
      <trkpt lat="45.60491" lon="4.60648">
        <ele>599</ele>
        <time>2019-04-23T09:05:38+02:00</time>
      </trkpt>
      <trkpt lat="45.60508" lon="4.60672">
        <ele>601</ele>
        <time>2019-04-23T09:05:53+02:00</time>
      </trkpt>
      <trkpt lat="45.60524" lon="4.60696">
        <ele>602</ele>
        <time>2019-04-23T09:06:12+02:00</time>
      </trkpt>
      <trkpt lat="45.60539" lon="4.60721">
        <ele>601</ele>
        <time>2019-04-23T09:06:30+02:00</time>
      </trkpt>
      <trkpt lat="45.60554" lon="4.60745">
        <ele>603</ele>
        <time>2019-04-23T09:06:46+02:00</time>
      </trkpt>
      <trkpt lat="45.60575" lon="4.6076">
        <ele>604</ele>
        <time>2019-04-23T09:07:48+02:00</time>
      </trkpt>
      <trkpt lat="45.60596" lon="4.60771">
        <ele>602</ele>
        <time>2019-04-23T09:08:02+02:00</time>
      </trkpt>
      <trkpt lat="45.6062" lon="4.60771">
        <ele>609</ele>
        <time>2019-04-23T09:08:19+02:00</time>
      </trkpt>
      <trkpt lat="45.60641" lon="4.6076">
        <ele>611</ele>
        <time>2019-04-23T09:08:35+02:00</time>
      </trkpt>
      <trkpt lat="45.60664" lon="4.60749">
        <ele>604</ele>
        <time>2019-04-23T09:08:50+02:00</time>
      </trkpt>
      <trkpt lat="45.60682" lon="4.60728">
        <ele>606</ele>
        <time>2019-04-23T09:09:04+02:00</time>
      </trkpt>
      <trkpt lat="45.60705" lon="4.6072">
        <ele>608</ele>
        <time>2019-04-23T09:09:20+02:00</time>
      </trkpt>
      <trkpt lat="45.60725" lon="4.60737">
        <ele>614</ele>
        <time>2019-04-23T09:09:36+02:00</time>
      </trkpt>
      <trkpt lat="45.60734" lon="4.60766">
        <ele>610</ele>
        <time>2019-04-23T09:09:49+02:00</time>
      </trkpt>
      <trkpt lat="45.60737" lon="4.60799">
        <ele>607</ele>
        <time>2019-04-23T09:10:03+02:00</time>
      </trkpt>
      <trkpt lat="45.60739" lon="4.60831">
        <ele>610</ele>
        <time>2019-04-23T09:10:17+02:00</time>
      </trkpt>
      <trkpt lat="45.6074" lon="4.60864">
        <ele>611</ele>
        <time>2019-04-23T09:10:31+02:00</time>
      </trkpt>
      <trkpt lat="45.60741" lon="4.60897">
        <ele>609</ele>
        <time>2019-04-23T09:10:45+02:00</time>
      </trkpt>
      <trkpt lat="45.60739" lon="4.60929">
        <ele>611</ele>
        <time>2019-04-23T09:11:00+02:00</time>
      </trkpt>
      <trkpt lat="45.60738" lon="4.60962">
        <ele>609</ele>
        <time>2019-04-23T09:11:14+02:00</time>
      </trkpt>
      <trkpt lat="45.60738" lon="4.60996">
        <ele>612</ele>
        <time>2019-04-23T09:11:29+02:00</time>
      </trkpt>
      <trkpt lat="45.60736" lon="4.61029">
        <ele>612</ele>
        <time>2019-04-23T09:11:44+02:00</time>
      </trkpt>
      <trkpt lat="45.6074" lon="4.61062">
        <ele>605</ele>
        <time>2019-04-23T09:11:58+02:00</time>
      </trkpt>
      <trkpt lat="45.60741" lon="4.61095">
        <ele>604</ele>
        <time>2019-04-23T09:12:14+02:00</time>
      </trkpt>
      <trkpt lat="45.60742" lon="4.61128">
        <ele>603</ele>
        <time>2019-04-23T09:12:28+02:00</time>
      </trkpt>
      <trkpt lat="45.60743" lon="4.61162">
        <ele>604</ele>
        <time>2019-04-23T09:12:41+02:00</time>
      </trkpt>
      <trkpt lat="45.60747" lon="4.61194">
        <ele>602</ele>
        <time>2019-04-23T09:12:57+02:00</time>
      </trkpt>
      <trkpt lat="45.60756" lon="4.61226">
        <ele>600</ele>
        <time>2019-04-23T09:13:12+02:00</time>
      </trkpt>
      <trkpt lat="45.60764" lon="4.61256">
        <ele>598</ele>
        <time>2019-04-23T09:13:27+02:00</time>
      </trkpt>
      <trkpt lat="45.60776" lon="4.61285">
        <ele>599</ele>
        <time>2019-04-23T09:13:41+02:00</time>
      </trkpt>
      <trkpt lat="45.60782" lon="4.61318">
        <ele>603</ele>
        <time>2019-04-23T09:13:55+02:00</time>
      </trkpt>
      <trkpt lat="45.60792" lon="4.61349">
        <ele>608</ele>
        <time>2019-04-23T09:14:10+02:00</time>
      </trkpt>
      <trkpt lat="45.60802" lon="4.6138">
        <ele>607</ele>
        <time>2019-04-23T09:14:25+02:00</time>
      </trkpt>
      <trkpt lat="45.60811" lon="4.61409">
        <ele>603</ele>
        <time>2019-04-23T09:14:39+02:00</time>
      </trkpt>
      <trkpt lat="45.60822" lon="4.61439">
        <ele>604</ele>
        <time>2019-04-23T09:14:54+02:00</time>
      </trkpt>
      <trkpt lat="45.60833" lon="4.6147">
        <ele>605</ele>
        <time>2019-04-23T09:15:09+02:00</time>
      </trkpt>
      <trkpt lat="45.60846" lon="4.61496">
        <ele>602</ele>
        <time>2019-04-23T09:15:25+02:00</time>
      </trkpt>
      <trkpt lat="45.60861" lon="4.61522">
        <ele>601</ele>
        <time>2019-04-23T09:15:38+02:00</time>
      </trkpt>
      <trkpt lat="45.60877" lon="4.61545">
        <ele>603</ele>
        <time>2019-04-23T09:15:53+02:00</time>
      </trkpt>
      <trkpt lat="45.609" lon="4.61555">
        <ele>600</ele>
        <time>2019-04-23T09:16:07+02:00</time>
      </trkpt>
      <trkpt lat="45.60917" lon="4.61534">
        <ele>599</ele>
        <time>2019-04-23T09:16:23+02:00</time>
      </trkpt>
      <trkpt lat="45.60929" lon="4.61505">
        <ele>603</ele>
        <time>2019-04-23T09:16:44+02:00</time>
      </trkpt>
      <trkpt lat="45.60946" lon="4.61482">
        <ele>605</ele>
        <time>2019-04-23T09:17:04+02:00</time>
      </trkpt>
      <trkpt lat="45.60962" lon="4.61459">
        <ele>606</ele>
        <time>2019-04-23T09:17:24+02:00</time>
      </trkpt>
      <trkpt lat="45.60978" lon="4.61436">
        <ele>614</ele>
        <time>2019-04-23T09:17:46+02:00</time>
      </trkpt>
      <trkpt lat="45.60988" lon="4.61405">
        <ele>619</ele>
        <time>2019-04-23T09:18:06+02:00</time>
      </trkpt>
      <trkpt lat="45.60995" lon="4.61374">
        <ele>610</ele>
        <time>2019-04-23T09:18:28+02:00</time>
      </trkpt>
      <trkpt lat="45.61004" lon="4.61343">
        <ele>616</ele>
        <time>2019-04-23T09:18:55+02:00</time>
      </trkpt>
      <trkpt lat="45.61018" lon="4.61319">
        <ele>630</ele>
        <time>2019-04-23T09:19:19+02:00</time>
      </trkpt>
      <trkpt lat="45.61031" lon="4.61292">
        <ele>632</ele>
        <time>2019-04-23T09:19:38+02:00</time>
      </trkpt>
      <trkpt lat="45.61048" lon="4.61268">
        <ele>632</ele>
        <time>2019-04-23T09:19:55+02:00</time>
      </trkpt>
      <trkpt lat="45.61069" lon="4.61254">
        <ele>632</ele>
        <time>2019-04-23T09:20:14+02:00</time>
      </trkpt>
      <trkpt lat="45.61085" lon="4.6123">
        <ele>632</ele>
        <time>2019-04-23T09:20:31+02:00</time>
      </trkpt>
      <trkpt lat="45.61107" lon="4.6122">
        <ele>641</ele>
        <time>2019-04-23T09:20:45+02:00</time>
      </trkpt>
      <trkpt lat="45.61125" lon="4.61199">
        <ele>647</ele>
        <time>2019-04-23T09:21:45+02:00</time>
      </trkpt>
      <trkpt lat="45.61146" lon="4.61213">
        <ele>641</ele>
        <time>2019-04-23T09:22:47+02:00</time>
      </trkpt>
      <trkpt lat="45.61169" lon="4.61214">
        <ele>645</ele>
        <time>2019-04-23T09:23:06+02:00</time>
      </trkpt>
      <trkpt lat="45.61191" lon="4.61206">
        <ele>637</ele>
        <time>2019-04-23T09:23:25+02:00</time>
      </trkpt>
      <trkpt lat="45.61212" lon="4.61218">
        <ele>637</ele>
        <time>2019-04-23T09:23:43+02:00</time>
      </trkpt>
      <trkpt lat="45.61234" lon="4.61229">
        <ele>637</ele>
        <time>2019-04-23T09:23:58+02:00</time>
      </trkpt>
      <trkpt lat="45.61254" lon="4.61247">
        <ele>641</ele>
        <time>2019-04-23T09:24:18+02:00</time>
      </trkpt>
      <trkpt lat="45.61275" lon="4.6126">
        <ele>643</ele>
        <time>2019-04-23T09:24:35+02:00</time>
      </trkpt>
      <trkpt lat="45.6129" lon="4.61285">
        <ele>649</ele>
        <time>2019-04-23T09:24:54+02:00</time>
      </trkpt>
      <trkpt lat="45.61305" lon="4.6131">
        <ele>656</ele>
        <time>2019-04-23T09:25:19+02:00</time>
      </trkpt>
      <trkpt lat="45.61323" lon="4.6133">
        <ele>658</ele>
        <time>2019-04-23T09:25:46+02:00</time>
      </trkpt>
      <trkpt lat="45.61345" lon="4.61343">
        <ele>660</ele>
        <time>2019-04-23T09:26:10+02:00</time>
      </trkpt>
      <trkpt lat="45.61359" lon="4.61367">
        <ele>669</ele>
        <time>2019-04-23T09:26:38+02:00</time>
      </trkpt>
      <trkpt lat="45.61377" lon="4.61389">
        <ele>672</ele>
        <time>2019-04-23T09:27:04+02:00</time>
      </trkpt>
      <trkpt lat="45.61394" lon="4.61411">
        <ele>673</ele>
        <time>2019-04-23T09:27:26+02:00</time>
      </trkpt>
      <trkpt lat="45.61411" lon="4.61433">
        <ele>678</ele>
        <time>2019-04-23T09:27:53+02:00</time>
      </trkpt>
      <trkpt lat="45.6142" lon="4.61463">
        <ele>680</ele>
        <time>2019-04-23T09:28:19+02:00</time>
      </trkpt>
      <trkpt lat="45.61441" lon="4.61479">
        <ele>688</ele>
        <time>2019-04-23T09:28:46+02:00</time>
      </trkpt>
      <trkpt lat="45.61462" lon="4.61469">
        <ele>685</ele>
        <time>2019-04-23T09:29:04+02:00</time>
      </trkpt>
      <trkpt lat="45.61477" lon="4.61443">
        <ele>690</ele>
        <time>2019-04-23T09:29:30+02:00</time>
      </trkpt>
      <trkpt lat="45.61496" lon="4.61426">
        <ele>697</ele>
        <time>2019-04-23T09:29:53+02:00</time>
      </trkpt>
      <trkpt lat="45.61518" lon="4.61415">
        <ele>702</ele>
        <time>2019-04-23T09:30:14+02:00</time>
      </trkpt>
      <trkpt lat="45.61533" lon="4.6139">
        <ele>696</ele>
        <time>2019-04-23T09:30:35+02:00</time>
      </trkpt>
      <trkpt lat="45.61549" lon="4.61368">
        <ele>700</ele>
        <time>2019-04-23T09:30:54+02:00</time>
      </trkpt>
      <trkpt lat="45.61559" lon="4.61339">
        <ele>707</ele>
        <time>2019-04-23T09:31:12+02:00</time>
      </trkpt>
      <trkpt lat="45.61567" lon="4.61306">
        <ele>714</ele>
        <time>2019-04-23T09:31:29+02:00</time>
      </trkpt>
      <trkpt lat="45.6158" lon="4.61277">
        <ele>719</ele>
        <time>2019-04-23T09:31:45+02:00</time>
      </trkpt>
      <trkpt lat="45.61584" lon="4.61245">
        <ele>717</ele>
        <time>2019-04-23T09:32:05+02:00</time>
      </trkpt>
      <trkpt lat="45.61595" lon="4.61217">
        <ele>719</ele>
        <time>2019-04-23T09:32:23+02:00</time>
      </trkpt>
      <trkpt lat="45.61606" lon="4.61188">
        <ele>722</ele>
        <time>2019-04-23T09:32:37+02:00</time>
      </trkpt>
      <trkpt lat="45.61616" lon="4.61159">
        <ele>725</ele>
        <time>2019-04-23T09:32:58+02:00</time>
      </trkpt>
      <trkpt lat="45.61621" lon="4.61127">
        <ele>726</ele>
        <time>2019-04-23T09:33:10+02:00</time>
      </trkpt>
      <trkpt lat="45.61633" lon="4.61098">
        <ele>730</ele>
        <time>2019-04-23T09:33:28+02:00</time>
      </trkpt>
      <trkpt lat="45.61644" lon="4.6107">
        <ele>729</ele>
        <time>2019-04-23T09:33:48+02:00</time>
      </trkpt>
      <trkpt lat="45.61659" lon="4.61044">
        <ele>731</ele>
        <time>2019-04-23T09:34:17+02:00</time>
      </trkpt>
      <trkpt lat="45.61677" lon="4.61024">
        <ele>730</ele>
        <time>2019-04-23T09:34:36+02:00</time>
      </trkpt>
      <trkpt lat="45.61696" lon="4.61004">
        <ele>732</ele>
        <time>2019-04-23T09:34:47+02:00</time>
      </trkpt>
      <trkpt lat="45.61716" lon="4.60986">
        <ele>738</ele>
        <time>2019-04-23T09:35:03+02:00</time>
      </trkpt>
      <trkpt lat="45.61734" lon="4.60966">
        <ele>739</ele>
        <time>2019-04-23T09:35:22+02:00</time>
      </trkpt>
      <trkpt lat="45.61758" lon="4.60959">
        <ele>746</ele>
        <time>2019-04-23T09:35:46+02:00</time>
      </trkpt>
      <trkpt lat="45.6178" lon="4.60955">
        <ele>744</ele>
        <time>2019-04-23T09:36:00+02:00</time>
      </trkpt>
      <trkpt lat="45.61804" lon="4.6096">
        <ele>746</ele>
        <time>2019-04-23T09:36:17+02:00</time>
      </trkpt>
      <trkpt lat="45.61827" lon="4.60964">
        <ele>746</ele>
        <time>2019-04-23T09:36:32+02:00</time>
      </trkpt>
      <trkpt lat="45.6185" lon="4.60961">
        <ele>750</ele>
        <time>2019-04-23T09:36:49+02:00</time>
      </trkpt>
      <trkpt lat="45.61873" lon="4.60955">
        <ele>745</ele>
        <time>2019-04-23T09:37:06+02:00</time>
      </trkpt>
      <trkpt lat="45.61893" lon="4.60936">
        <ele>740</ele>
        <time>2019-04-23T09:37:24+02:00</time>
      </trkpt>
      <trkpt lat="45.61911" lon="4.60915">
        <ele>748</ele>
        <time>2019-04-23T09:37:43+02:00</time>
      </trkpt>
      <trkpt lat="45.61935" lon="4.60912">
        <ele>751</ele>
        <time>2019-04-23T09:38:06+02:00</time>
      </trkpt>
      <trkpt lat="45.61958" lon="4.6091">
        <ele>756</ele>
        <time>2019-04-23T09:38:26+02:00</time>
      </trkpt>
      <trkpt lat="45.61979" lon="4.60895">
        <ele>753</ele>
        <time>2019-04-23T09:38:46+02:00</time>
      </trkpt>
      <trkpt lat="45.62001" lon="4.60885">
        <ele>761</ele>
        <time>2019-04-23T09:39:03+02:00</time>
      </trkpt>
      <trkpt lat="45.62024" lon="4.60887">
        <ele>763</ele>
        <time>2019-04-23T09:39:22+02:00</time>
      </trkpt>
      <trkpt lat="45.62048" lon="4.60889">
        <ele>763</ele>
        <time>2019-04-23T09:39:43+02:00</time>
      </trkpt>
      <trkpt lat="45.62053" lon="4.60922">
        <ele>750</ele>
        <time>2019-04-23T09:40:07+02:00</time>
      </trkpt>
      <trkpt lat="45.62041" lon="4.60952">
        <ele>748</ele>
        <time>2019-04-23T09:40:21+02:00</time>
      </trkpt>
      <trkpt lat="45.62029" lon="4.60981">
        <ele>739</ele>
        <time>2019-04-23T09:40:41+02:00</time>
      </trkpt>
      <trkpt lat="45.62022" lon="4.61013">
        <ele>745</ele>
        <time>2019-04-23T09:40:57+02:00</time>
      </trkpt>
      <trkpt lat="45.62015" lon="4.61045">
        <ele>742</ele>
        <time>2019-04-23T09:41:13+02:00</time>
      </trkpt>
      <trkpt lat="45.62008" lon="4.61078">
        <ele>735</ele>
        <time>2019-04-23T09:41:28+02:00</time>
      </trkpt>
      <trkpt lat="45.62003" lon="4.61109">
        <ele>724</ele>
        <time>2019-04-23T09:41:44+02:00</time>
      </trkpt>
      <trkpt lat="45.61999" lon="4.61142">
        <ele>723</ele>
        <time>2019-04-23T09:42:01+02:00</time>
      </trkpt>
      <trkpt lat="45.62011" lon="4.61171">
        <ele>724</ele>
        <time>2019-04-23T09:42:17+02:00</time>
      </trkpt>
      <trkpt lat="45.62025" lon="4.61198">
        <ele>723</ele>
        <time>2019-04-23T09:42:29+02:00</time>
      </trkpt>
      <trkpt lat="45.6204" lon="4.61222">
        <ele>714</ele>
        <time>2019-04-23T09:42:45+02:00</time>
      </trkpt>
      <trkpt lat="45.62062" lon="4.6123">
        <ele>699</ele>
        <time>2019-04-23T09:43:04+02:00</time>
      </trkpt>
      <trkpt lat="45.62081" lon="4.6125">
        <ele>707</ele>
        <time>2019-04-23T09:43:21+02:00</time>
      </trkpt>
      <trkpt lat="45.62098" lon="4.61275">
        <ele>699</ele>
        <time>2019-04-23T09:43:39+02:00</time>
      </trkpt>
      <trkpt lat="45.62117" lon="4.61294">
        <ele>700</ele>
        <time>2019-04-23T09:43:51+02:00</time>
      </trkpt>
      <trkpt lat="45.62137" lon="4.6131">
        <ele>702</ele>
        <time>2019-04-23T09:44:05+02:00</time>
      </trkpt>
      <trkpt lat="45.62155" lon="4.61331">
        <ele>696</ele>
        <time>2019-04-23T09:44:22+02:00</time>
      </trkpt>
      <trkpt lat="45.62174" lon="4.61349">
        <ele>694</ele>
        <time>2019-04-23T09:44:40+02:00</time>
      </trkpt>
      <trkpt lat="45.62197" lon="4.61353">
        <ele>698</ele>
        <time>2019-04-23T09:46:32+02:00</time>
      </trkpt>
      <trkpt lat="45.62219" lon="4.61346">
        <ele>702</ele>
        <time>2019-04-23T09:46:55+02:00</time>
      </trkpt>
      <trkpt lat="45.62241" lon="4.61335">
        <ele>703</ele>
        <time>2019-04-23T09:47:14+02:00</time>
      </trkpt>
      <trkpt lat="45.62263" lon="4.61327">
        <ele>708</ele>
        <time>2019-04-23T09:47:33+02:00</time>
      </trkpt>
      <trkpt lat="45.62284" lon="4.61314">
        <ele>712</ele>
        <time>2019-04-23T09:48:03+02:00</time>
      </trkpt>
      <trkpt lat="45.62305" lon="4.61297">
        <ele>716</ele>
        <time>2019-04-23T09:48:27+02:00</time>
      </trkpt>
      <trkpt lat="45.62323" lon="4.61276">
        <ele>719</ele>
        <time>2019-04-23T09:48:57+02:00</time>
      </trkpt>
      <trkpt lat="45.62345" lon="4.61265">
        <ele>737</ele>
        <time>2019-04-23T09:49:33+02:00</time>
      </trkpt>
      <trkpt lat="45.62366" lon="4.61252">
        <ele>741</ele>
        <time>2019-04-23T09:50:03+02:00</time>
      </trkpt>
      <trkpt lat="45.62389" lon="4.61243">
        <ele>731</ele>
        <time>2019-04-23T09:50:20+02:00</time>
      </trkpt>
      <trkpt lat="45.62412" lon="4.61244">
        <ele>743</ele>
        <time>2019-04-23T09:50:41+02:00</time>
      </trkpt>
      <trkpt lat="45.62436" lon="4.61247">
        <ele>750</ele>
        <time>2019-04-23T09:51:21+02:00</time>
      </trkpt>
      <trkpt lat="45.62457" lon="4.61236">
        <ele>747</ele>
        <time>2019-04-23T09:51:51+02:00</time>
      </trkpt>
      <trkpt lat="45.62478" lon="4.61224">
        <ele>747</ele>
        <time>2019-04-23T09:52:18+02:00</time>
      </trkpt>
      <trkpt lat="45.62501" lon="4.61213">
        <ele>756</ele>
        <time>2019-04-23T09:52:43+02:00</time>
      </trkpt>
      <trkpt lat="45.62523" lon="4.61204">
        <ele>762</ele>
        <time>2019-04-23T09:53:09+02:00</time>
      </trkpt>
      <trkpt lat="45.62546" lon="4.612">
        <ele>774</ele>
        <time>2019-04-23T09:53:37+02:00</time>
      </trkpt>
      <trkpt lat="45.62565" lon="4.61183">
        <ele>771</ele>
        <time>2019-04-23T09:54:10+02:00</time>
      </trkpt>
      <trkpt lat="45.62587" lon="4.6117">
        <ele>772</ele>
        <time>2019-04-23T09:54:35+02:00</time>
      </trkpt>
      <trkpt lat="45.62606" lon="4.61153">
        <ele>783</ele>
        <time>2019-04-23T09:54:56+02:00</time>
      </trkpt>
      <trkpt lat="45.62626" lon="4.61139">
        <ele>779</ele>
        <time>2019-04-23T09:55:14+02:00</time>
      </trkpt>
      <trkpt lat="45.62646" lon="4.61122">
        <ele>790</ele>
        <time>2019-04-23T09:55:40+02:00</time>
      </trkpt>
      <trkpt lat="45.62663" lon="4.61099">
        <ele>793</ele>
        <time>2019-04-23T09:56:14+02:00</time>
      </trkpt>
      <trkpt lat="45.62681" lon="4.6108">
        <ele>794</ele>
        <time>2019-04-23T09:56:44+02:00</time>
      </trkpt>
      <trkpt lat="45.62697" lon="4.61055">
        <ele>797</ele>
        <time>2019-04-23T09:57:14+02:00</time>
      </trkpt>
      <trkpt lat="45.62713" lon="4.61031">
        <ele>799</ele>
        <time>2019-04-23T09:57:37+02:00</time>
      </trkpt>
      <trkpt lat="45.6273" lon="4.6101">
        <ele>805</ele>
        <time>2019-04-23T09:57:55+02:00</time>
      </trkpt>
      <trkpt lat="45.62733" lon="4.60978">
        <ele>812</ele>
        <time>2019-04-23T09:58:17+02:00</time>
      </trkpt>
      <trkpt lat="45.62736" lon="4.60946">
        <ele>814</ele>
        <time>2019-04-23T09:58:42+02:00</time>
      </trkpt>
      <trkpt lat="45.62745" lon="4.60916">
        <ele>821</ele>
        <time>2019-04-23T09:59:09+02:00</time>
      </trkpt>
      <trkpt lat="45.62731" lon="4.6089">
        <ele>832</ele>
        <time>2019-04-23T09:59:32+02:00</time>
      </trkpt>
      <trkpt lat="45.62723" lon="4.60859">
        <ele>830</ele>
        <time>2019-04-23T10:00:08+02:00</time>
      </trkpt>
      <trkpt lat="45.62713" lon="4.60829">
        <ele>837</ele>
        <time>2019-04-23T10:00:39+02:00</time>
      </trkpt>
      <trkpt lat="45.62705" lon="4.60798">
        <ele>840</ele>
        <time>2019-04-23T10:00:59+02:00</time>
      </trkpt>
      <trkpt lat="45.62693" lon="4.6077">
        <ele>836</ele>
        <time>2019-04-23T10:01:17+02:00</time>
      </trkpt>
      <trkpt lat="45.62696" lon="4.60737">
        <ele>837</ele>
        <time>2019-04-23T10:01:41+02:00</time>
      </trkpt>
      <trkpt lat="45.62695" lon="4.60704">
        <ele>843</ele>
        <time>2019-04-23T10:02:00+02:00</time>
      </trkpt>
      <trkpt lat="45.62698" lon="4.60672">
        <ele>849</ele>
        <time>2019-04-23T10:02:21+02:00</time>
      </trkpt>
      <trkpt lat="45.62709" lon="4.60643">
        <ele>855</ele>
        <time>2019-04-23T10:02:45+02:00</time>
      </trkpt>
      <trkpt lat="45.62721" lon="4.60615">
        <ele>856</ele>
        <time>2019-04-23T10:03:08+02:00</time>
      </trkpt>
      <trkpt lat="45.62733" lon="4.60588">
        <ele>851</ele>
        <time>2019-04-23T10:03:32+02:00</time>
      </trkpt>
      <trkpt lat="45.62751" lon="4.60566">
        <ele>852</ele>
        <time>2019-04-23T10:03:50+02:00</time>
      </trkpt>
      <trkpt lat="45.6277" lon="4.60545">
        <ele>850</ele>
        <time>2019-04-23T10:04:13+02:00</time>
      </trkpt>
      <trkpt lat="45.6279" lon="4.60531">
        <ele>849</ele>
        <time>2019-04-23T10:04:37+02:00</time>
      </trkpt>
      <trkpt lat="45.62813" lon="4.60524">
        <ele>842</ele>
        <time>2019-04-23T10:05:55+02:00</time>
      </trkpt>
      <trkpt lat="45.62834" lon="4.60513">
        <ele>851</ele>
        <time>2019-04-23T10:06:24+02:00</time>
      </trkpt>
      <trkpt lat="45.62854" lon="4.60497">
        <ele>852</ele>
        <time>2019-04-23T10:06:49+02:00</time>
      </trkpt>
      <trkpt lat="45.62868" lon="4.60471">
        <ele>857</ele>
        <time>2019-04-23T10:07:11+02:00</time>
      </trkpt>
      <trkpt lat="45.62884" lon="4.60448">
        <ele>866</ele>
        <time>2019-04-23T10:07:32+02:00</time>
      </trkpt>
      <trkpt lat="45.62888" lon="4.60417">
        <ele>864</ele>
        <time>2019-04-23T10:07:51+02:00</time>
      </trkpt>
      <trkpt lat="45.62899" lon="4.60388">
        <ele>868</ele>
        <time>2019-04-23T10:08:08+02:00</time>
      </trkpt>
      <trkpt lat="45.62903" lon="4.60356">
        <ele>872</ele>
        <time>2019-04-23T10:08:30+02:00</time>
      </trkpt>
      <trkpt lat="45.6291" lon="4.60324">
        <ele>869</ele>
        <time>2019-04-23T10:08:49+02:00</time>
      </trkpt>
      <trkpt lat="45.62925" lon="4.60299">
        <ele>873</ele>
        <time>2019-04-23T10:09:09+02:00</time>
      </trkpt>
      <trkpt lat="45.62938" lon="4.60272">
        <ele>878</ele>
        <time>2019-04-23T10:09:29+02:00</time>
      </trkpt>
      <trkpt lat="45.6295" lon="4.60242">
        <ele>873</ele>
        <time>2019-04-23T10:09:50+02:00</time>
      </trkpt>
      <trkpt lat="45.6296" lon="4.60213">
        <ele>875</ele>
        <time>2019-04-23T10:10:10+02:00</time>
      </trkpt>
      <trkpt lat="45.62975" lon="4.60189">
        <ele>874</ele>
        <time>2019-04-23T10:10:30+02:00</time>
      </trkpt>
      <trkpt lat="45.62991" lon="4.60163">
        <ele>875</ele>
        <time>2019-04-23T10:10:48+02:00</time>
      </trkpt>
      <trkpt lat="45.63012" lon="4.60151">
        <ele>879</ele>
        <time>2019-04-23T10:11:04+02:00</time>
      </trkpt>
      <trkpt lat="45.63035" lon="4.60143">
        <ele>882</ele>
        <time>2019-04-23T10:11:22+02:00</time>
      </trkpt>
      <trkpt lat="45.63059" lon="4.60139">
        <ele>881</ele>
        <time>2019-04-23T10:11:40+02:00</time>
      </trkpt>
      <trkpt lat="45.6308" lon="4.60154">
        <ele>888</ele>
        <time>2019-04-23T10:11:55+02:00</time>
      </trkpt>
      <trkpt lat="45.6309" lon="4.60183">
        <ele>887</ele>
        <time>2019-04-23T10:12:11+02:00</time>
      </trkpt>
      <trkpt lat="45.63099" lon="4.60215">
        <ele>889</ele>
        <time>2019-04-23T10:12:30+02:00</time>
      </trkpt>
      <trkpt lat="45.63111" lon="4.60242">
        <ele>889</ele>
        <time>2019-04-23T10:12:46+02:00</time>
      </trkpt>
      <trkpt lat="45.63123" lon="4.6027">
        <ele>890</ele>
        <time>2019-04-23T10:13:07+02:00</time>
      </trkpt>
      <trkpt lat="45.63138" lon="4.60296">
        <ele>891</ele>
        <time>2019-04-23T10:13:24+02:00</time>
      </trkpt>
      <trkpt lat="45.63151" lon="4.60323">
        <ele>891</ele>
        <time>2019-04-23T10:13:42+02:00</time>
      </trkpt>
      <trkpt lat="45.6317" lon="4.60342">
        <ele>885</ele>
        <time>2019-04-23T10:13:59+02:00</time>
      </trkpt>
      <trkpt lat="45.63185" lon="4.60366">
        <ele>886</ele>
        <time>2019-04-23T10:14:16+02:00</time>
      </trkpt>
      <trkpt lat="45.63204" lon="4.60387">
        <ele>887</ele>
        <time>2019-04-23T10:14:32+02:00</time>
      </trkpt>
      <trkpt lat="45.63223" lon="4.60407">
        <ele>887</ele>
        <time>2019-04-23T10:14:49+02:00</time>
      </trkpt>
      <trkpt lat="45.63245" lon="4.60417">
        <ele>880</ele>
        <time>2019-04-23T10:15:05+02:00</time>
      </trkpt>
      <trkpt lat="45.63267" lon="4.60428">
        <ele>879</ele>
        <time>2019-04-23T10:15:21+02:00</time>
      </trkpt>
      <trkpt lat="45.63285" lon="4.60448">
        <ele>881</ele>
        <time>2019-04-23T10:15:39+02:00</time>
      </trkpt>
      <trkpt lat="45.63305" lon="4.60462">
        <ele>886</ele>
        <time>2019-04-23T10:15:56+02:00</time>
      </trkpt>
      <trkpt lat="45.63323" lon="4.60482">
        <ele>884</ele>
        <time>2019-04-23T10:16:14+02:00</time>
      </trkpt>
      <trkpt lat="45.63344" lon="4.60497">
        <ele>891</ele>
        <time>2019-04-23T10:16:28+02:00</time>
      </trkpt>
      <trkpt lat="45.63366" lon="4.60505">
        <ele>889</ele>
        <time>2019-04-23T10:16:44+02:00</time>
      </trkpt>
      <trkpt lat="45.63388" lon="4.60493">
        <ele>881</ele>
        <time>2019-04-23T10:17:00+02:00</time>
      </trkpt>
      <trkpt lat="45.63409" lon="4.60479">
        <ele>887</ele>
        <time>2019-04-23T10:17:14+02:00</time>
      </trkpt>
      <trkpt lat="45.63423" lon="4.60454">
        <ele>890</ele>
        <time>2019-04-23T10:17:29+02:00</time>
      </trkpt>
      <trkpt lat="45.63439" lon="4.60428">
        <ele>882</ele>
        <time>2019-04-23T10:17:45+02:00</time>
      </trkpt>
      <trkpt lat="45.6346" lon="4.60413">
        <ele>881</ele>
        <time>2019-04-23T10:18:03+02:00</time>
      </trkpt>
      <trkpt lat="45.63483" lon="4.6041">
        <ele>877</ele>
        <time>2019-04-23T10:18:19+02:00</time>
      </trkpt>
      <trkpt lat="45.63506" lon="4.60409">
        <ele>882</ele>
        <time>2019-04-23T10:18:30+02:00</time>
      </trkpt>
      <trkpt lat="45.63527" lon="4.60398">
        <ele>882</ele>
        <time>2019-04-23T10:18:42+02:00</time>
      </trkpt>
      <trkpt lat="45.63548" lon="4.60384">
        <ele>878</ele>
        <time>2019-04-23T10:18:58+02:00</time>
      </trkpt>
      <trkpt lat="45.63569" lon="4.6037">
        <ele>871</ele>
        <time>2019-04-23T10:19:21+02:00</time>
      </trkpt>
      <trkpt lat="45.63591" lon="4.60357">
        <ele>877</ele>
        <time>2019-04-23T10:19:36+02:00</time>
      </trkpt>
      <trkpt lat="45.63607" lon="4.60332">
        <ele>874</ele>
        <time>2019-04-23T10:19:53+02:00</time>
      </trkpt>
      <trkpt lat="45.63626" lon="4.60314">
        <ele>874</ele>
        <time>2019-04-23T10:20:07+02:00</time>
      </trkpt>
      <trkpt lat="45.63646" lon="4.603">
        <ele>871</ele>
        <time>2019-04-23T10:20:21+02:00</time>
      </trkpt>
      <trkpt lat="45.63664" lon="4.60278">
        <ele>865</ele>
        <time>2019-04-23T10:20:38+02:00</time>
      </trkpt>
      <trkpt lat="45.63685" lon="4.60267">
        <ele>869</ele>
        <time>2019-04-23T10:20:53+02:00</time>
      </trkpt>
      <trkpt lat="45.63705" lon="4.60249">
        <ele>876</ele>
        <time>2019-04-23T10:21:08+02:00</time>
      </trkpt>
      <trkpt lat="45.63725" lon="4.60229">
        <ele>872</ele>
        <time>2019-04-23T10:21:22+02:00</time>
      </trkpt>
      <trkpt lat="45.63744" lon="4.60211">
        <ele>876</ele>
        <time>2019-04-23T10:21:40+02:00</time>
      </trkpt>
      <trkpt lat="45.63763" lon="4.60191">
        <ele>878</ele>
        <time>2019-04-23T10:21:59+02:00</time>
      </trkpt>
      <trkpt lat="45.63783" lon="4.60175">
        <ele>868</ele>
        <time>2019-04-23T10:22:18+02:00</time>
      </trkpt>
      <trkpt lat="45.63802" lon="4.60157">
        <ele>870</ele>
        <time>2019-04-23T10:22:33+02:00</time>
      </trkpt>
      <trkpt lat="45.63788" lon="4.60131">
        <ele>873</ele>
        <time>2019-04-23T10:22:50+02:00</time>
      </trkpt>
      <trkpt lat="45.63775" lon="4.60104">
        <ele>870</ele>
        <time>2019-04-23T10:23:10+02:00</time>
      </trkpt>
      <trkpt lat="45.63762" lon="4.60077">
        <ele>871</ele>
        <time>2019-04-23T10:23:30+02:00</time>
      </trkpt>
      <trkpt lat="45.63748" lon="4.6005">
        <ele>882</ele>
        <time>2019-04-23T10:23:50+02:00</time>
      </trkpt>
      <trkpt lat="45.63729" lon="4.6003">
        <ele>883</ele>
        <time>2019-04-23T10:24:13+02:00</time>
      </trkpt>
      <trkpt lat="45.63713" lon="4.60008">
        <ele>883</ele>
        <time>2019-04-23T10:24:34+02:00</time>
      </trkpt>
      <trkpt lat="45.637" lon="4.5998">
        <ele>889</ele>
        <time>2019-04-23T10:24:55+02:00</time>
      </trkpt>
      <trkpt lat="45.63683" lon="4.59958">
        <ele>893</ele>
        <time>2019-04-23T10:25:10+02:00</time>
      </trkpt>
      <trkpt lat="45.63666" lon="4.59936">
        <ele>894</ele>
        <time>2019-04-23T10:25:30+02:00</time>
      </trkpt>
      <trkpt lat="45.63648" lon="4.59915">
        <ele>893</ele>
        <time>2019-04-23T10:25:46+02:00</time>
      </trkpt>
      <trkpt lat="45.63634" lon="4.59887">
        <ele>898</ele>
        <time>2019-04-23T10:26:07+02:00</time>
      </trkpt>
      <trkpt lat="45.6363" lon="4.59855">
        <ele>900</ele>
        <time>2019-04-23T10:26:26+02:00</time>
      </trkpt>
      <trkpt lat="45.63621" lon="4.59823">
        <ele>901</ele>
        <time>2019-04-23T10:26:45+02:00</time>
      </trkpt>
      <trkpt lat="45.63616" lon="4.59792">
        <ele>904</ele>
        <time>2019-04-23T10:27:02+02:00</time>
      </trkpt>
      <trkpt lat="45.63614" lon="4.59759">
        <ele>905</ele>
        <time>2019-04-23T10:27:19+02:00</time>
      </trkpt>
      <trkpt lat="45.63609" lon="4.59727">
        <ele>907</ele>
        <time>2019-04-23T10:27:35+02:00</time>
      </trkpt>
      <trkpt lat="45.63601" lon="4.59695">
        <ele>904</ele>
        <time>2019-04-23T10:27:55+02:00</time>
      </trkpt>
      <trkpt lat="45.63583" lon="4.59675">
        <ele>910</ele>
        <time>2019-04-23T10:28:11+02:00</time>
      </trkpt>
      <trkpt lat="45.63572" lon="4.59646">
        <ele>912</ele>
        <time>2019-04-23T10:28:30+02:00</time>
      </trkpt>
      <trkpt lat="45.63562" lon="4.59615">
        <ele>914</ele>
        <time>2019-04-23T10:28:45+02:00</time>
      </trkpt>
      <trkpt lat="45.63542" lon="4.59599">
        <ele>914</ele>
        <time>2019-04-23T10:29:01+02:00</time>
      </trkpt>
      <trkpt lat="45.6353" lon="4.5957">
        <ele>913</ele>
        <time>2019-04-23T10:29:14+02:00</time>
      </trkpt>
      <trkpt lat="45.63525" lon="4.59538">
        <ele>911</ele>
        <time>2019-04-23T10:29:31+02:00</time>
      </trkpt>
      <trkpt lat="45.63521" lon="4.59505">
        <ele>908</ele>
        <time>2019-04-23T10:29:46+02:00</time>
      </trkpt>
      <trkpt lat="45.63519" lon="4.59473">
        <ele>906</ele>
        <time>2019-04-23T10:30:00+02:00</time>
      </trkpt>
      <trkpt lat="45.63514" lon="4.59441">
        <ele>902</ele>
        <time>2019-04-23T10:30:16+02:00</time>
      </trkpt>
      <trkpt lat="45.63512" lon="4.59408">
        <ele>906</ele>
        <time>2019-04-23T10:30:33+02:00</time>
      </trkpt>
      <trkpt lat="45.63518" lon="4.59375">
        <ele>904</ele>
        <time>2019-04-23T10:30:46+02:00</time>
      </trkpt>
      <trkpt lat="45.63522" lon="4.59342">
        <ele>903</ele>
        <time>2019-04-23T10:31:00+02:00</time>
      </trkpt>
      <trkpt lat="45.63523" lon="4.59308">
        <ele>902</ele>
        <time>2019-04-23T10:31:17+02:00</time>
      </trkpt>
      <trkpt lat="45.6352" lon="4.59274">
        <ele>902</ele>
        <time>2019-04-23T10:31:35+02:00</time>
      </trkpt>
      <trkpt lat="45.63522" lon="4.59241">
        <ele>906</ele>
        <time>2019-04-23T10:31:51+02:00</time>
      </trkpt>
      <trkpt lat="45.63518" lon="4.59208">
        <ele>905</ele>
        <time>2019-04-23T10:32:08+02:00</time>
      </trkpt>
      <trkpt lat="45.63514" lon="4.59175">
        <ele>903</ele>
        <time>2019-04-23T10:32:24+02:00</time>
      </trkpt>
      <trkpt lat="45.63525" lon="4.59145">
        <ele>910</ele>
        <time>2019-04-23T10:32:38+02:00</time>
      </trkpt>
      <trkpt lat="45.63538" lon="4.59119">
        <ele>914</ele>
        <time>2019-04-23T10:32:55+02:00</time>
      </trkpt>
      <trkpt lat="45.63554" lon="4.59095">
        <ele>914</ele>
        <time>2019-04-23T10:33:12+02:00</time>
      </trkpt>
      <trkpt lat="45.63539" lon="4.59119">
        <ele>911</ele>
        <time>2019-04-23T10:33:29+02:00</time>
      </trkpt>
      <trkpt lat="45.63527" lon="4.59148">
        <ele>917</ele>
        <time>2019-04-23T10:33:45+02:00</time>
      </trkpt>
      <trkpt lat="45.6353" lon="4.59181">
        <ele>922</ele>
        <time>2019-04-23T10:34:04+02:00</time>
      </trkpt>
      <trkpt lat="45.63544" lon="4.59206">
        <ele>928</ele>
        <time>2019-04-23T10:34:23+02:00</time>
      </trkpt>
      <trkpt lat="45.63562" lon="4.59226">
        <ele>933</ele>
        <time>2019-04-23T10:34:43+02:00</time>
      </trkpt>
      <trkpt lat="45.63579" lon="4.59247">
        <ele>935</ele>
        <time>2019-04-23T10:35:06+02:00</time>
      </trkpt>
      <trkpt lat="45.636" lon="4.59233">
        <ele>937</ele>
        <time>2019-04-23T10:35:32+02:00</time>
      </trkpt>
      <trkpt lat="45.63619" lon="4.59214">
        <ele>935</ele>
        <time>2019-04-23T10:35:52+02:00</time>
      </trkpt>
      <trkpt lat="45.63635" lon="4.59188">
        <ele>944</ele>
        <time>2019-04-23T10:36:10+02:00</time>
      </trkpt>
      <trkpt lat="45.63658" lon="4.5918">
        <ele>948</ele>
        <time>2019-04-23T10:36:31+02:00</time>
      </trkpt>
      <trkpt lat="45.63673" lon="4.59205">
        <ele>955</ele>
        <time>2019-04-23T10:37:00+02:00</time>
      </trkpt>
      <trkpt lat="45.63688" lon="4.59229">
        <ele>945</ele>
        <time>2019-04-23T10:37:21+02:00</time>
      </trkpt>
      <trkpt lat="45.63696" lon="4.5926">
        <ele>952</ele>
        <time>2019-04-23T10:37:46+02:00</time>
      </trkpt>
      <trkpt lat="45.6371" lon="4.59285">
        <ele>953</ele>
        <time>2019-04-23T10:38:13+02:00</time>
      </trkpt>
      <trkpt lat="45.63722" lon="4.59313">
        <ele>953</ele>
        <time>2019-04-23T10:38:43+02:00</time>
      </trkpt>
      <trkpt lat="45.63733" lon="4.59341">
        <ele>958</ele>
        <time>2019-04-23T10:39:12+02:00</time>
      </trkpt>
      <trkpt lat="45.63749" lon="4.59365">
        <ele>965</ele>
        <time>2019-04-23T10:39:34+02:00</time>
      </trkpt>
      <trkpt lat="45.6375" lon="4.59398">
        <ele>977</ele>
        <time>2019-04-23T10:40:07+02:00</time>
      </trkpt>
      <trkpt lat="45.63774" lon="4.59401">
        <ele>973</ele>
        <time>2019-04-23T10:42:22+02:00</time>
      </trkpt>
      <trkpt lat="45.63792" lon="4.59424">
        <ele>984</ele>
        <time>2019-04-23T10:42:40+02:00</time>
      </trkpt>
      <trkpt lat="45.63798" lon="4.59392">
        <ele>987</ele>
        <time>2019-04-23T10:44:21+02:00</time>
      </trkpt>
      <trkpt lat="45.63813" lon="4.59367">
        <ele>984</ele>
        <time>2019-04-23T10:44:43+02:00</time>
      </trkpt>
      <trkpt lat="45.63827" lon="4.5934">
        <ele>983</ele>
        <time>2019-04-23T10:45:08+02:00</time>
      </trkpt>
      <trkpt lat="45.63817" lon="4.59369">
        <ele>979</ele>
        <time>2019-04-23T10:46:28+02:00</time>
      </trkpt>
      <trkpt lat="45.63798" lon="4.59388">
        <ele>976</ele>
        <time>2019-04-23T10:46:49+02:00</time>
      </trkpt>
      <trkpt lat="45.63778" lon="4.59402">
        <ele>971</ele>
        <time>2019-04-23T10:47:05+02:00</time>
      </trkpt>
      <trkpt lat="45.63759" lon="4.59385">
        <ele>976</ele>
        <time>2019-04-23T10:47:20+02:00</time>
      </trkpt>
      <trkpt lat="45.63743" lon="4.59361">
        <ele>974</ele>
        <time>2019-04-23T10:47:39+02:00</time>
      </trkpt>
      <trkpt lat="45.63727" lon="4.59336">
        <ele>964</ele>
        <time>2019-04-23T10:47:56+02:00</time>
      </trkpt>
      <trkpt lat="45.63716" lon="4.59307">
        <ele>961</ele>
        <time>2019-04-23T10:48:12+02:00</time>
      </trkpt>
      <trkpt lat="45.63699" lon="4.59285">
        <ele>955</ele>
        <time>2019-04-23T10:48:32+02:00</time>
      </trkpt>
      <trkpt lat="45.63697" lon="4.59252">
        <ele>941</ele>
        <time>2019-04-23T10:48:56+02:00</time>
      </trkpt>
      <trkpt lat="45.63688" lon="4.59221">
        <ele>944</ele>
        <time>2019-04-23T10:49:12+02:00</time>
      </trkpt>
      <trkpt lat="45.63674" lon="4.59196">
        <ele>942</ele>
        <time>2019-04-23T10:49:31+02:00</time>
      </trkpt>
      <trkpt lat="45.63655" lon="4.59178">
        <ele>933</ele>
        <time>2019-04-23T10:49:51+02:00</time>
      </trkpt>
      <trkpt lat="45.63636" lon="4.59197">
        <ele>932</ele>
        <time>2019-04-23T10:50:08+02:00</time>
      </trkpt>
      <trkpt lat="45.63617" lon="4.59214">
        <ele>930</ele>
        <time>2019-04-23T10:50:21+02:00</time>
      </trkpt>
      <trkpt lat="45.63599" lon="4.59236">
        <ele>928</ele>
        <time>2019-04-23T10:50:35+02:00</time>
      </trkpt>
      <trkpt lat="45.63581" lon="4.59259">
        <ele>922</ele>
        <time>2019-04-23T10:50:50+02:00</time>
      </trkpt>
      <trkpt lat="45.63568" lon="4.59285">
        <ele>916</ele>
        <time>2019-04-23T10:51:04+02:00</time>
      </trkpt>
      <trkpt lat="45.63555" lon="4.59313">
        <ele>914</ele>
        <time>2019-04-23T10:51:18+02:00</time>
      </trkpt>
      <trkpt lat="45.63547" lon="4.59345">
        <ele>915</ele>
        <time>2019-04-23T10:51:34+02:00</time>
      </trkpt>
      <trkpt lat="45.63534" lon="4.59371">
        <ele>908</ele>
        <time>2019-04-23T10:51:49+02:00</time>
      </trkpt>
      <trkpt lat="45.63519" lon="4.59396">
        <ele>903</ele>
        <time>2019-04-23T10:52:04+02:00</time>
      </trkpt>
      <trkpt lat="45.63512" lon="4.5943">
        <ele>903</ele>
        <time>2019-04-23T10:52:15+02:00</time>
      </trkpt>
      <trkpt lat="45.63512" lon="4.59464">
        <ele>904</ele>
        <time>2019-04-23T10:52:27+02:00</time>
      </trkpt>
      <trkpt lat="45.63519" lon="4.59494">
        <ele>908</ele>
        <time>2019-04-23T10:52:42+02:00</time>
      </trkpt>
      <trkpt lat="45.63524" lon="4.59527">
        <ele>910</ele>
        <time>2019-04-23T10:52:59+02:00</time>
      </trkpt>
      <trkpt lat="45.63528" lon="4.5956">
        <ele>916</ele>
        <time>2019-04-23T10:53:14+02:00</time>
      </trkpt>
      <trkpt lat="45.63539" lon="4.59588">
        <ele>919</ele>
        <time>2019-04-23T10:53:30+02:00</time>
      </trkpt>
      <trkpt lat="45.63555" lon="4.59613">
        <ele>921</ele>
        <time>2019-04-23T10:53:48+02:00</time>
      </trkpt>
      <trkpt lat="45.63566" lon="4.59641">
        <ele>918</ele>
        <time>2019-04-23T10:54:02+02:00</time>
      </trkpt>
      <trkpt lat="45.6356" lon="4.59673">
        <ele>918</ele>
        <time>2019-04-23T10:54:24+02:00</time>
      </trkpt>
      <trkpt lat="45.63536" lon="4.59675">
        <ele>918</ele>
        <time>2019-04-23T10:54:42+02:00</time>
      </trkpt>
      <trkpt lat="45.63513" lon="4.59669">
        <ele>915</ele>
        <time>2019-04-23T10:54:57+02:00</time>
      </trkpt>
      <trkpt lat="45.6349" lon="4.59659">
        <ele>916</ele>
        <time>2019-04-23T10:55:14+02:00</time>
      </trkpt>
      <trkpt lat="45.63467" lon="4.59657">
        <ele>918</ele>
        <time>2019-04-23T10:55:30+02:00</time>
      </trkpt>
      <trkpt lat="45.63444" lon="4.59656">
        <ele>920</ele>
        <time>2019-04-23T10:55:48+02:00</time>
      </trkpt>
      <trkpt lat="45.63421" lon="4.59655">
        <ele>925</ele>
        <time>2019-04-23T10:56:04+02:00</time>
      </trkpt>
      <trkpt lat="45.63397" lon="4.59659">
        <ele>921</ele>
        <time>2019-04-23T10:56:21+02:00</time>
      </trkpt>
      <trkpt lat="45.63375" lon="4.59664">
        <ele>923</ele>
        <time>2019-04-23T10:56:38+02:00</time>
      </trkpt>
      <trkpt lat="45.63352" lon="4.59661">
        <ele>923</ele>
        <time>2019-04-23T10:56:53+02:00</time>
      </trkpt>
      <trkpt lat="45.63329" lon="4.59666">
        <ele>929</ele>
        <time>2019-04-23T10:57:10+02:00</time>
      </trkpt>
      <trkpt lat="45.63307" lon="4.59669">
        <ele>929</ele>
        <time>2019-04-23T10:57:24+02:00</time>
      </trkpt>
      <trkpt lat="45.63283" lon="4.59675">
        <ele>927</ele>
        <time>2019-04-23T10:57:41+02:00</time>
      </trkpt>
      <trkpt lat="45.63259" lon="4.5968">
        <ele>926</ele>
        <time>2019-04-23T10:57:56+02:00</time>
      </trkpt>
      <trkpt lat="45.63236" lon="4.59686">
        <ele>928</ele>
        <time>2019-04-23T10:58:13+02:00</time>
      </trkpt>
      <trkpt lat="45.63213" lon="4.59689">
        <ele>924</ele>
        <time>2019-04-23T10:58:31+02:00</time>
      </trkpt>
      <trkpt lat="45.6319" lon="4.59692">
        <ele>923</ele>
        <time>2019-04-23T10:58:48+02:00</time>
      </trkpt>
      <trkpt lat="45.63167" lon="4.59688">
        <ele>924</ele>
        <time>2019-04-23T10:59:05+02:00</time>
      </trkpt>
      <trkpt lat="45.63144" lon="4.59685">
        <ele>928</ele>
        <time>2019-04-23T10:59:20+02:00</time>
      </trkpt>
      <trkpt lat="45.6312" lon="4.5969">
        <ele>924</ele>
        <time>2019-04-23T10:59:31+02:00</time>
      </trkpt>
      <trkpt lat="45.63106" lon="4.59718">
        <ele>923</ele>
        <time>2019-04-23T10:59:41+02:00</time>
      </trkpt>
      <trkpt lat="45.63093" lon="4.59745">
        <ele>921</ele>
        <time>2019-04-23T10:59:52+02:00</time>
      </trkpt>
      <trkpt lat="45.63082" lon="4.59774">
        <ele>918</ele>
        <time>2019-04-23T11:00:06+02:00</time>
      </trkpt>
      <trkpt lat="45.63068" lon="4.598">
        <ele>919</ele>
        <time>2019-04-23T11:00:22+02:00</time>
      </trkpt>
      <trkpt lat="45.63051" lon="4.59824">
        <ele>914</ele>
        <time>2019-04-23T11:00:37+02:00</time>
      </trkpt>
      <trkpt lat="45.63037" lon="4.59853">
        <ele>912</ele>
        <time>2019-04-23T11:00:48+02:00</time>
      </trkpt>
      <trkpt lat="45.63031" lon="4.59884">
        <ele>909</ele>
        <time>2019-04-23T11:01:01+02:00</time>
      </trkpt>
      <trkpt lat="45.63024" lon="4.59916">
        <ele>910</ele>
        <time>2019-04-23T11:01:15+02:00</time>
      </trkpt>
      <trkpt lat="45.63018" lon="4.59949">
        <ele>904</ele>
        <time>2019-04-23T11:01:27+02:00</time>
      </trkpt>
      <trkpt lat="45.63008" lon="4.59979">
        <ele>904</ele>
        <time>2019-04-23T11:01:42+02:00</time>
      </trkpt>
      <trkpt lat="45.62995" lon="4.60005">
        <ele>901</ele>
        <time>2019-04-23T11:01:56+02:00</time>
      </trkpt>
      <trkpt lat="45.62986" lon="4.60037">
        <ele>903</ele>
        <time>2019-04-23T11:02:11+02:00</time>
      </trkpt>
      <trkpt lat="45.62964" lon="4.60025">
        <ele>895</ele>
        <time>2019-04-23T11:02:26+02:00</time>
      </trkpt>
      <trkpt lat="45.62946" lon="4.60002">
        <ele>896</ele>
        <time>2019-04-23T11:02:34+02:00</time>
      </trkpt>
      <trkpt lat="45.62923" lon="4.59993">
        <ele>894</ele>
        <time>2019-04-23T11:02:45+02:00</time>
      </trkpt>
      <trkpt lat="45.629" lon="4.59989">
        <ele>892</ele>
        <time>2019-04-23T11:02:59+02:00</time>
      </trkpt>
      <trkpt lat="45.62877" lon="4.59993">
        <ele>887</ele>
        <time>2019-04-23T11:03:13+02:00</time>
      </trkpt>
      <trkpt lat="45.62855" lon="4.5999">
        <ele>882</ele>
        <time>2019-04-23T11:03:25+02:00</time>
      </trkpt>
      <trkpt lat="45.62832" lon="4.59991">
        <ele>883</ele>
        <time>2019-04-23T11:03:39+02:00</time>
      </trkpt>
      <trkpt lat="45.62809" lon="4.59991">
        <ele>884</ele>
        <time>2019-04-23T11:03:54+02:00</time>
      </trkpt>
      <trkpt lat="45.62786" lon="4.59986">
        <ele>884</ele>
        <time>2019-04-23T11:04:07+02:00</time>
      </trkpt>
      <trkpt lat="45.62762" lon="4.59985">
        <ele>883</ele>
        <time>2019-04-23T11:04:20+02:00</time>
      </trkpt>
      <trkpt lat="45.62739" lon="4.59987">
        <ele>881</ele>
        <time>2019-04-23T11:04:34+02:00</time>
      </trkpt>
      <trkpt lat="45.62715" lon="4.59987">
        <ele>878</ele>
        <time>2019-04-23T11:04:48+02:00</time>
      </trkpt>
      <trkpt lat="45.62692" lon="4.59989">
        <ele>881</ele>
        <time>2019-04-23T11:05:01+02:00</time>
      </trkpt>
      <trkpt lat="45.62668" lon="4.59988">
        <ele>877</ele>
        <time>2019-04-23T11:05:17+02:00</time>
      </trkpt>
      <trkpt lat="45.62644" lon="4.59985">
        <ele>875</ele>
        <time>2019-04-23T11:05:31+02:00</time>
      </trkpt>
      <trkpt lat="45.62621" lon="4.59989">
        <ele>876</ele>
        <time>2019-04-23T11:05:46+02:00</time>
      </trkpt>
      <trkpt lat="45.62597" lon="4.59995">
        <ele>876</ele>
        <time>2019-04-23T11:06:02+02:00</time>
      </trkpt>
      <trkpt lat="45.62576" lon="4.60008">
        <ele>874</ele>
        <time>2019-04-23T11:06:19+02:00</time>
      </trkpt>
      <trkpt lat="45.62554" lon="4.60014">
        <ele>878</ele>
        <time>2019-04-23T11:06:32+02:00</time>
      </trkpt>
      <trkpt lat="45.62531" lon="4.60024">
        <ele>881</ele>
        <time>2019-04-23T11:06:45+02:00</time>
      </trkpt>
      <trkpt lat="45.62509" lon="4.60035">
        <ele>880</ele>
        <time>2019-04-23T11:07:02+02:00</time>
      </trkpt>
      <trkpt lat="45.62486" lon="4.60043">
        <ele>883</ele>
        <time>2019-04-23T11:07:17+02:00</time>
      </trkpt>
      <trkpt lat="45.62463" lon="4.6004">
        <ele>880</ele>
        <time>2019-04-23T11:07:31+02:00</time>
      </trkpt>
      <trkpt lat="45.62442" lon="4.60027">
        <ele>875</ele>
        <time>2019-04-23T11:07:44+02:00</time>
      </trkpt>
      <trkpt lat="45.62425" lon="4.60004">
        <ele>873</ele>
        <time>2019-04-23T11:07:59+02:00</time>
      </trkpt>
      <trkpt lat="45.62408" lon="4.59981">
        <ele>871</ele>
        <time>2019-04-23T11:08:14+02:00</time>
      </trkpt>
      <trkpt lat="45.6239" lon="4.5996">
        <ele>869</ele>
        <time>2019-04-23T11:08:28+02:00</time>
      </trkpt>
      <trkpt lat="45.62371" lon="4.59944">
        <ele>874</ele>
        <time>2019-04-23T11:08:42+02:00</time>
      </trkpt>
      <trkpt lat="45.62353" lon="4.59923">
        <ele>874</ele>
        <time>2019-04-23T11:08:58+02:00</time>
      </trkpt>
      <trkpt lat="45.62337" lon="4.59901">
        <ele>878</ele>
        <time>2019-04-23T11:09:14+02:00</time>
      </trkpt>
      <trkpt lat="45.62319" lon="4.5988">
        <ele>878</ele>
        <time>2019-04-23T11:09:33+02:00</time>
      </trkpt>
      <trkpt lat="45.62303" lon="4.59856">
        <ele>881</ele>
        <time>2019-04-23T11:09:50+02:00</time>
      </trkpt>
      <trkpt lat="45.62291" lon="4.59827">
        <ele>875</ele>
        <time>2019-04-23T11:10:06+02:00</time>
      </trkpt>
      <trkpt lat="45.62276" lon="4.59802">
        <ele>882</ele>
        <time>2019-04-23T11:10:26+02:00</time>
      </trkpt>
      <trkpt lat="45.62261" lon="4.59777">
        <ele>888</ele>
        <time>2019-04-23T11:10:44+02:00</time>
      </trkpt>
      <trkpt lat="45.62245" lon="4.59753">
        <ele>890</ele>
        <time>2019-04-23T11:10:59+02:00</time>
      </trkpt>
      <trkpt lat="45.62231" lon="4.59727">
        <ele>892</ele>
        <time>2019-04-23T11:11:17+02:00</time>
      </trkpt>
      <trkpt lat="45.62227" lon="4.59695">
        <ele>895</ele>
        <time>2019-04-23T11:11:34+02:00</time>
      </trkpt>
      <trkpt lat="45.6223" lon="4.59662">
        <ele>898</ele>
        <time>2019-04-23T11:11:52+02:00</time>
      </trkpt>
      <trkpt lat="45.62227" lon="4.5963">
        <ele>896</ele>
        <time>2019-04-23T11:12:05+02:00</time>
      </trkpt>
      <trkpt lat="45.62222" lon="4.59597">
        <ele>902</ele>
        <time>2019-04-23T11:12:22+02:00</time>
      </trkpt>
      <trkpt lat="45.62216" lon="4.59565">
        <ele>903</ele>
        <time>2019-04-23T11:12:40+02:00</time>
      </trkpt>
      <trkpt lat="45.62208" lon="4.59535">
        <ele>906</ele>
        <time>2019-04-23T11:12:59+02:00</time>
      </trkpt>
      <trkpt lat="45.62197" lon="4.59506">
        <ele>905</ele>
        <time>2019-04-23T11:13:19+02:00</time>
      </trkpt>
      <trkpt lat="45.62182" lon="4.59481">
        <ele>903</ele>
        <time>2019-04-23T11:13:38+02:00</time>
      </trkpt>
      <trkpt lat="45.62165" lon="4.5946">
        <ele>906</ele>
        <time>2019-04-23T11:13:54+02:00</time>
      </trkpt>
      <trkpt lat="45.62146" lon="4.5944">
        <ele>903</ele>
        <time>2019-04-23T11:14:14+02:00</time>
      </trkpt>
      <trkpt lat="45.62127" lon="4.59422">
        <ele>909</ele>
        <time>2019-04-23T11:14:32+02:00</time>
      </trkpt>
      <trkpt lat="45.62107" lon="4.59404">
        <ele>910</ele>
        <time>2019-04-23T11:14:50+02:00</time>
      </trkpt>
      <trkpt lat="45.62093" lon="4.59378">
        <ele>915</ele>
        <time>2019-04-23T11:15:09+02:00</time>
      </trkpt>
      <trkpt lat="45.62071" lon="4.59364">
        <ele>919</ele>
        <time>2019-04-23T11:15:26+02:00</time>
      </trkpt>
      <trkpt lat="45.6205" lon="4.59349">
        <ele>919</ele>
        <time>2019-04-23T11:15:44+02:00</time>
      </trkpt>
      <trkpt lat="45.62027" lon="4.5934">
        <ele>919</ele>
        <time>2019-04-23T11:16:01+02:00</time>
      </trkpt>
      <trkpt lat="45.62004" lon="4.59337">
        <ele>923</ele>
        <time>2019-04-23T11:16:18+02:00</time>
      </trkpt>
      <trkpt lat="45.61981" lon="4.59332">
        <ele>919</ele>
        <time>2019-04-23T11:16:35+02:00</time>
      </trkpt>
      <trkpt lat="45.61957" lon="4.59342">
        <ele>921</ele>
        <time>2019-04-23T11:16:50+02:00</time>
      </trkpt>
      <trkpt lat="45.61934" lon="4.59351">
        <ele>920</ele>
        <time>2019-04-23T11:17:02+02:00</time>
      </trkpt>
      <trkpt lat="45.61911" lon="4.5935">
        <ele>917</ele>
        <time>2019-04-23T11:17:13+02:00</time>
      </trkpt>
      <trkpt lat="45.61887" lon="4.59355">
        <ele>917</ele>
        <time>2019-04-23T11:17:27+02:00</time>
      </trkpt>
      <trkpt lat="45.61863" lon="4.59358">
        <ele>912</ele>
        <time>2019-04-23T11:17:43+02:00</time>
      </trkpt>
      <trkpt lat="45.6184" lon="4.59356">
        <ele>911</ele>
        <time>2019-04-23T11:17:57+02:00</time>
      </trkpt>
      <trkpt lat="45.61816" lon="4.59355">
        <ele>912</ele>
        <time>2019-04-23T11:18:08+02:00</time>
      </trkpt>
      <trkpt lat="45.61793" lon="4.5935">
        <ele>911</ele>
        <time>2019-04-23T11:18:22+02:00</time>
      </trkpt>
      <trkpt lat="45.61771" lon="4.5935">
        <ele>911</ele>
        <time>2019-04-23T11:18:36+02:00</time>
      </trkpt>
      <trkpt lat="45.61748" lon="4.5935">
        <ele>909</ele>
        <time>2019-04-23T11:18:51+02:00</time>
      </trkpt>
      <trkpt lat="45.61726" lon="4.59342">
        <ele>904</ele>
        <time>2019-04-23T11:19:06+02:00</time>
      </trkpt>
      <trkpt lat="45.61703" lon="4.59337">
        <ele>902</ele>
        <time>2019-04-23T11:19:21+02:00</time>
      </trkpt>
      <trkpt lat="45.61681" lon="4.5933">
        <ele>907</ele>
        <time>2019-04-23T11:19:37+02:00</time>
      </trkpt>
      <trkpt lat="45.61658" lon="4.59326">
        <ele>904</ele>
        <time>2019-04-23T11:19:53+02:00</time>
      </trkpt>
      <trkpt lat="45.61634" lon="4.59329">
        <ele>904</ele>
        <time>2019-04-23T11:20:11+02:00</time>
      </trkpt>
      <trkpt lat="45.61612" lon="4.59328">
        <ele>910</ele>
        <time>2019-04-23T11:20:26+02:00</time>
      </trkpt>
      <trkpt lat="45.61588" lon="4.5933">
        <ele>907</ele>
        <time>2019-04-23T11:20:43+02:00</time>
      </trkpt>
      <trkpt lat="45.61566" lon="4.59321">
        <ele>904</ele>
        <time>2019-04-23T11:20:57+02:00</time>
      </trkpt>
      <trkpt lat="45.61544" lon="4.59315">
        <ele>907</ele>
        <time>2019-04-23T11:21:15+02:00</time>
      </trkpt>
      <trkpt lat="45.6152" lon="4.59312">
        <ele>907</ele>
        <time>2019-04-23T11:21:29+02:00</time>
      </trkpt>
      <trkpt lat="45.61498" lon="4.59311">
        <ele>902</ele>
        <time>2019-04-23T11:21:44+02:00</time>
      </trkpt>
      <trkpt lat="45.61475" lon="4.59308">
        <ele>896</ele>
        <time>2019-04-23T11:21:58+02:00</time>
      </trkpt>
      <trkpt lat="45.61452" lon="4.59305">
        <ele>893</ele>
        <time>2019-04-23T11:22:07+02:00</time>
      </trkpt>
      <trkpt lat="45.61428" lon="4.59301">
        <ele>897</ele>
        <time>2019-04-23T11:22:20+02:00</time>
      </trkpt>
      <trkpt lat="45.61404" lon="4.59295">
        <ele>894</ele>
        <time>2019-04-23T11:22:36+02:00</time>
      </trkpt>
      <trkpt lat="45.61382" lon="4.59286">
        <ele>899</ele>
        <time>2019-04-23T11:22:49+02:00</time>
      </trkpt>
      <trkpt lat="45.6136" lon="4.59277">
        <ele>896</ele>
        <time>2019-04-23T11:23:05+02:00</time>
      </trkpt>
      <trkpt lat="45.61336" lon="4.59274">
        <ele>895</ele>
        <time>2019-04-23T11:23:17+02:00</time>
      </trkpt>
      <trkpt lat="45.61313" lon="4.59265">
        <ele>891</ele>
        <time>2019-04-23T11:23:28+02:00</time>
      </trkpt>
      <trkpt lat="45.61291" lon="4.59259">
        <ele>887</ele>
        <time>2019-04-23T11:23:43+02:00</time>
      </trkpt>
      <trkpt lat="45.6127" lon="4.59248">
        <ele>883</ele>
        <time>2019-04-23T11:23:59+02:00</time>
      </trkpt>
      <trkpt lat="45.61247" lon="4.59244">
        <ele>880</ele>
        <time>2019-04-23T11:24:20+02:00</time>
      </trkpt>
      <trkpt lat="45.61226" lon="4.59227">
        <ele>874</ele>
        <time>2019-04-23T11:24:40+02:00</time>
      </trkpt>
      <trkpt lat="45.61205" lon="4.59214">
        <ele>867</ele>
        <time>2019-04-23T11:24:55+02:00</time>
      </trkpt>
      <trkpt lat="45.61187" lon="4.59192">
        <ele>866</ele>
        <time>2019-04-23T11:25:09+02:00</time>
      </trkpt>
      <trkpt lat="45.61172" lon="4.59168">
        <ele>858</ele>
        <time>2019-04-23T11:25:27+02:00</time>
      </trkpt>
      <trkpt lat="45.61154" lon="4.59148">
        <ele>853</ele>
        <time>2019-04-23T11:25:43+02:00</time>
      </trkpt>
      <trkpt lat="45.61135" lon="4.59129">
        <ele>851</ele>
        <time>2019-04-23T11:26:00+02:00</time>
      </trkpt>
      <trkpt lat="45.61114" lon="4.59114">
        <ele>851</ele>
        <time>2019-04-23T11:26:12+02:00</time>
      </trkpt>
      <trkpt lat="45.6109" lon="4.59104">
        <ele>846</ele>
        <time>2019-04-23T11:26:23+02:00</time>
      </trkpt>
      <trkpt lat="45.61074" lon="4.59081">
        <ele>843</ele>
        <time>2019-04-23T11:26:35+02:00</time>
      </trkpt>
      <trkpt lat="45.61054" lon="4.59063">
        <ele>842</ele>
        <time>2019-04-23T11:26:50+02:00</time>
      </trkpt>
      <trkpt lat="45.61033" lon="4.5905">
        <ele>836</ele>
        <time>2019-04-23T11:27:07+02:00</time>
      </trkpt>
      <trkpt lat="45.61009" lon="4.59048">
        <ele>830</ele>
        <time>2019-04-23T11:27:24+02:00</time>
      </trkpt>
      <trkpt lat="45.60986" lon="4.59043">
        <ele>824</ele>
        <time>2019-04-23T11:27:43+02:00</time>
      </trkpt>
      <trkpt lat="45.60964" lon="4.59037">
        <ele>826</ele>
        <time>2019-04-23T11:27:57+02:00</time>
      </trkpt>
      <trkpt lat="45.60941" lon="4.59031">
        <ele>817</ele>
        <time>2019-04-23T11:28:08+02:00</time>
      </trkpt>
      <trkpt lat="45.60919" lon="4.59026">
        <ele>819</ele>
        <time>2019-04-23T11:28:25+02:00</time>
      </trkpt>
      <trkpt lat="45.60895" lon="4.59023">
        <ele>816</ele>
        <time>2019-04-23T11:28:40+02:00</time>
      </trkpt>
      <trkpt lat="45.60873" lon="4.59026">
        <ele>816</ele>
        <time>2019-04-23T11:28:56+02:00</time>
      </trkpt>
      <trkpt lat="45.6085" lon="4.59017">
        <ele>821</ele>
        <time>2019-04-23T11:29:14+02:00</time>
      </trkpt>
      <trkpt lat="45.6083" lon="4.58999">
        <ele>817</ele>
        <time>2019-04-23T11:29:29+02:00</time>
      </trkpt>
      <trkpt lat="45.60807" lon="4.58991">
        <ele>814</ele>
        <time>2019-04-23T11:29:44+02:00</time>
      </trkpt>
      <trkpt lat="45.60784" lon="4.58992">
        <ele>814</ele>
        <time>2019-04-23T11:29:59+02:00</time>
      </trkpt>
      <trkpt lat="45.60761" lon="4.58994">
        <ele>809</ele>
        <time>2019-04-23T11:30:13+02:00</time>
      </trkpt>
      <trkpt lat="45.60739" lon="4.5899">
        <ele>810</ele>
        <time>2019-04-23T11:30:28+02:00</time>
      </trkpt>
      <trkpt lat="45.60716" lon="4.58986">
        <ele>811</ele>
        <time>2019-04-23T11:30:45+02:00</time>
      </trkpt>
      <trkpt lat="45.60693" lon="4.58982">
        <ele>811</ele>
        <time>2019-04-23T11:31:00+02:00</time>
      </trkpt>
      <trkpt lat="45.6067" lon="4.58973">
        <ele>809</ele>
        <time>2019-04-23T11:31:16+02:00</time>
      </trkpt>
      <trkpt lat="45.60647" lon="4.58969">
        <ele>811</ele>
        <time>2019-04-23T11:31:32+02:00</time>
      </trkpt>
      <trkpt lat="45.60624" lon="4.58959">
        <ele>812</ele>
        <time>2019-04-23T11:31:49+02:00</time>
      </trkpt>
      <trkpt lat="45.606" lon="4.58958">
        <ele>816</ele>
        <time>2019-04-23T11:32:06+02:00</time>
      </trkpt>
      <trkpt lat="45.60579" lon="4.58946">
        <ele>818</ele>
        <time>2019-04-23T11:32:21+02:00</time>
      </trkpt>
      <trkpt lat="45.60556" lon="4.58939">
        <ele>817</ele>
        <time>2019-04-23T11:32:36+02:00</time>
      </trkpt>
      <trkpt lat="45.60533" lon="4.58936">
        <ele>813</ele>
        <time>2019-04-23T11:32:51+02:00</time>
      </trkpt>
      <trkpt lat="45.60511" lon="4.58932">
        <ele>807</ele>
        <time>2019-04-23T11:33:08+02:00</time>
      </trkpt>
      <trkpt lat="45.60487" lon="4.58936">
        <ele>800</ele>
        <time>2019-04-23T11:33:25+02:00</time>
      </trkpt>
      <trkpt lat="45.60464" lon="4.5894">
        <ele>799</ele>
        <time>2019-04-23T11:33:40+02:00</time>
      </trkpt>
      <trkpt lat="45.6044" lon="4.58944">
        <ele>797</ele>
        <time>2019-04-23T11:33:55+02:00</time>
      </trkpt>
      <trkpt lat="45.60417" lon="4.58944">
        <ele>793</ele>
        <time>2019-04-23T11:34:11+02:00</time>
      </trkpt>
      <trkpt lat="45.60397" lon="4.58958">
        <ele>789</ele>
        <time>2019-04-23T11:34:29+02:00</time>
      </trkpt>
      <trkpt lat="45.60374" lon="4.58957">
        <ele>786</ele>
        <time>2019-04-23T11:34:46+02:00</time>
      </trkpt>
      <trkpt lat="45.60351" lon="4.5896">
        <ele>785</ele>
        <time>2019-04-23T11:35:04+02:00</time>
      </trkpt>
      <trkpt lat="45.60328" lon="4.58956">
        <ele>781</ele>
        <time>2019-04-23T11:35:20+02:00</time>
      </trkpt>
      <trkpt lat="45.60306" lon="4.58951">
        <ele>779</ele>
        <time>2019-04-23T11:35:38+02:00</time>
      </trkpt>
      <trkpt lat="45.60285" lon="4.58938">
        <ele>774</ele>
        <time>2019-04-23T11:35:54+02:00</time>
      </trkpt>
      <trkpt lat="45.60262" lon="4.58933">
        <ele>770</ele>
        <time>2019-04-23T11:36:12+02:00</time>
      </trkpt>
      <trkpt lat="45.60239" lon="4.58926">
        <ele>768</ele>
        <time>2019-04-23T11:36:28+02:00</time>
      </trkpt>
      <trkpt lat="45.60218" lon="4.58914">
        <ele>767</ele>
        <time>2019-04-23T11:36:43+02:00</time>
      </trkpt>
      <trkpt lat="45.60195" lon="4.58911">
        <ele>767</ele>
        <time>2019-04-23T11:37:00+02:00</time>
      </trkpt>
      <trkpt lat="45.60171" lon="4.5891">
        <ele>767</ele>
        <time>2019-04-23T11:37:17+02:00</time>
      </trkpt>
      <trkpt lat="45.60148" lon="4.58903">
        <ele>772</ele>
        <time>2019-04-23T11:37:31+02:00</time>
      </trkpt>
      <trkpt lat="45.60128" lon="4.5892">
        <ele>764</ele>
        <time>2019-04-23T11:37:49+02:00</time>
      </trkpt>
      <trkpt lat="45.60119" lon="4.5889">
        <ele>767</ele>
        <time>2019-04-23T11:38:14+02:00</time>
      </trkpt>
      <trkpt lat="45.60096" lon="4.58885">
        <ele>759</ele>
        <time>2019-04-23T11:38:28+02:00</time>
      </trkpt>
      <trkpt lat="45.60076" lon="4.58866">
        <ele>760</ele>
        <time>2019-04-23T11:38:49+02:00</time>
      </trkpt>
      <trkpt lat="45.6008" lon="4.58834">
        <ele>758</ele>
        <time>2019-04-23T11:39:06+02:00</time>
      </trkpt>
    </trkseg>
  </trk>
</gpx>